Terminal Aerodrome Forecast
Issued by NWS Cleveland, OH

Home | Current Version | Previous Version | Text Only | Print | Product List | Glossary Off
Versions: 1 2 3 4 5 6 7 8 9 10 11 12 13 14 15 16 17 18 19 20 21 22 23 24 25 26 27 28 29 30 31

000
FTUS41 KCLE 040500
TAFERI
TAF
KERI 040540Z 0406/0506 17008KT P6SM FEW100 SCT250
     FM041400 20014G22KT P6SM SCT100 BKN250
     FM042100 23012G20KT P6SM VCTS OVC050CB
      TEMPO 0423/0501 1 1/2SM -TSRA BR BKN025CB OVC035
     FM050300 22006KT P6SM SCT025 OVC035=

USA.gov is the U.S. government's official web portal to all federal, state and local government web resources and services.